Terminal Aerodrome Forecast
Issued by NWS Upton, NY

Home | Current Version | Previous Version | Text Only | Print | Product List | Glossary On
Versions: 1 2 3 4 5 6 7 8 9 10 11 12 13 14 15 16 17 18 19 20 21 22 23 24 25
000
FTUS41 KOKX 210800 AAA
TAFLGA
TAF AMD
KLGA 210830Z 2109/2206 05005KT P6SM FEW250
     FM211900 12007KT P6SM FEW250
     FM212100 17011KT P6SM FEW250
     FM220200 20005KT P6SM SCT250=

USA.gov is the U.S. government's official web portal to all federal, state and local government web resources and services.